createdAt,value
2017-12-02T00:02:05.955Z,18.73
2017-12-02T00:04:36.338Z,18.83
2017-12-02T00:07:06.944Z,12.27
2017-12-02T00:09:37.871Z,18.13
2017-12-02T00:12:09.096Z,20.00
2017-12-02T00:14:39.350Z,18.80
2017-12-02T00:17:09.801Z,9.97
2017-12-02T00:19:40.166Z,18.00
2017-12-02T00:22:10.785Z,20.27
2017-12-02T00:24:42.055Z,15.97
2017-12-02T00:27:12.412Z,17.33
2017-12-02T00:29:42.603Z,18.37
2017-12-02T00:32:15.024Z,18.00
2017-12-02T00:34:45.273Z,16.70
2017-12-02T00:37:15.656Z,20.57
2017-12-02T00:39:58.756Z,15.10
2017-12-02T00:42:30.754Z,13.80
2017-12-02T00:45:01.221Z,15.40
2017-12-02T00:47:34.303Z,13.97
2017-12-02T00:50:04.720Z,22.13
2017-12-02T00:52:35.053Z,18.23
2017-12-02T00:55:05.267Z,20.23
2017-12-02T00:57:35.600Z,14.50
2017-12-02T01:00:05.821Z,16.90
2017-12-02T01:02:36.712Z,12.27
2017-12-02T01:05:07.148Z,15.30
2017-12-02T01:07:37.538Z,15.60
2017-12-02T01:10:07.758Z,12.70
2017-12-02T01:12:38.815Z,14.27
2017-12-02T01:15:09.256Z,15.67
2017-12-02T01:17:41.958Z,13.83
2017-12-02T01:20:12.183Z,23.13
2017-12-02T01:22:42.631Z,19.43
2017-12-02T01:25:12.863Z,22.47
2017-12-02T01:27:43.360Z,25.97
2017-12-02T01:30:13.615Z,17.20
2017-12-02T01:32:44.057Z,16.73
2017-12-02T01:35:27.668Z,18.47
2017-12-02T01:37:57.907Z,16.40
2017-12-02T01:40:28.719Z,17.83
2017-12-02T01:42:59.262Z,15.60
2017-12-02T01:45:29.999Z,18.07
2017-12-02T01:48:00.698Z,15.47
2017-12-02T01:50:31.506Z,20.37
2017-12-02T01:53:02.139Z,14.83
2017-12-02T01:55:32.820Z,15.23
2017-12-02T01:58:03.105Z,21.77
2017-12-02T02:00:36.807Z,20.93
2017-12-02T02:03:09.849Z,22.23
2017-12-02T02:05:40.323Z,27.03
2017-12-02T02:08:11.322Z,21.97
2017-12-02T02:10:46.726Z,23.20
2017-12-02T02:13:17.134Z,16.40
2017-12-02T02:15:47.499Z,16.30
2017-12-02T02:18:19.232Z,17.17
2017-12-02T02:20:49.760Z,16.83
2017-12-02T02:23:21.177Z,17.47
2017-12-02T02:25:51.854Z,19.20
2017-12-02T02:28:22.019Z,18.53
2017-12-02T02:30:52.347Z,18.47
2017-12-02T02:33:23.359Z,14.90
2017-12-02T02:35:54.081Z,20.33
2017-12-02T02:38:25.088Z,21.20
2017-12-02T02:40:55.500Z,18.90
2017-12-02T02:43:34.880Z,21.80
2017-12-02T02:46:06.377Z,17.77
2017-12-02T02:48:38.888Z,18.37
2017-12-02T02:51:09.335Z,16.13
2017-12-02T02:53:39.537Z,20.30
2017-12-02T02:56:09.852Z,18.93
2017-12-02T02:58:40.355Z,21.97
2017-12-02T03:01:11.349Z,23.17
2017-12-02T03:03:43.233Z,21.40
2017-12-02T03:06:13.410Z,22.30
2017-12-02T03:08:43.571Z,23.97
2017-12-02T03:11:13.983Z,20.00
2017-12-02T03:13:44.440Z,22.23
2017-12-02T03:16:15.055Z,22.17
2017-12-02T03:18:45.600Z,26.73
2017-12-02T03:21:16.352Z,30.00
2017-12-02T03:23:46.783Z,24.40
2017-12-02T03:26:17.224Z,22.90
2017-12-02T03:28:56.134Z,21.13
2017-12-02T03:31:26.394Z,24.30
2017-12-02T03:33:56.707Z,21.00
2017-12-02T03:36:26.970Z,20.43
2017-12-02T03:38:57.687Z,21.87
2017-12-02T03:41:28.181Z,24.57
2017-12-02T03:43:58.603Z,24.57
2017-12-02T03:46:28.959Z,20.37
2017-12-02T03:49:03.096Z,16.67
2017-12-02T03:51:33.378Z,22.57
2017-12-02T03:54:03.701Z,23.40
2017-12-02T03:56:34.235Z,20.83
2017-12-02T03:59:05.440Z,21.87
2017-12-02T04:01:35.807Z,19.40
2017-12-02T04:04:08.678Z,31.03
2017-12-02T04:06:39.245Z,33.40
2017-12-02T04:09:10.325Z,27.40
2017-12-02T04:11:40.750Z,30.90
2017-12-02T04:14:11.340Z,35.97
2017-12-02T04:16:42.716Z,21.93
2017-12-02T04:19:13.015Z,29.93
2017-12-02T04:21:45.562Z,28.67
2017-12-02T04:24:16.088Z,45.90
2017-12-02T04:26:46.612Z,37.17
2017-12-02T04:29:17.091Z,36.27
2017-12-02T04:31:48.467Z,33.77
2017-12-02T04:34:18.907Z,39.50
2017-12-02T04:36:50.677Z,31.53
2017-12-02T04:39:21.177Z,37.90
2017-12-02T04:41:52.756Z,35.43
2017-12-02T04:44:25.462Z,34.60
2017-12-02T04:47:04.463Z,22.47
2017-12-02T04:49:36.638Z,26.53
2017-12-02T04:52:07.612Z,23.90
2017-12-02T04:54:37.964Z,27.10
2017-12-02T04:57:08.491Z,26.07
2017-12-02T04:59:38.791Z,25.67
2017-12-02T05:02:09.278Z,22.57
2017-12-02T05:04:39.779Z,27.73
2017-12-02T05:07:10.560Z,23.90
2017-12-02T05:09:40.831Z,23.43
2017-12-02T05:12:11.493Z,31.33
2017-12-02T05:14:41.918Z,26.37
2017-12-02T05:17:12.152Z,37.27
2017-12-02T05:19:42.567Z,28.10
2017-12-02T05:22:13.543Z,26.93
2017-12-02T05:24:44.183Z,27.07
2017-12-02T05:27:15.003Z,33.93
2017-12-02T05:29:45.331Z,33.43
2017-12-02T05:32:15.792Z,32.23
2017-12-02T05:34:46.280Z,27.87
2017-12-02T05:37:17.016Z,20.87
2017-12-02T05:39:47.386Z,24.60
2017-12-02T05:42:17.730Z,21.73
2017-12-02T05:44:48.643Z,13.17
2017-12-02T05:47:18.999Z,19.23
2017-12-02T05:49:58.414Z,42.17
2017-12-02T05:52:28.968Z,30.83
2017-12-02T05:55:00.641Z,36.03
2017-12-02T05:57:31.259Z,39.00
2017-12-02T06:00:01.624Z,29.57
2017-12-02T06:02:32.039Z,28.17
2017-12-02T06:05:02.847Z,30.87
2017-12-02T06:07:33.168Z,28.40
2017-12-02T06:10:03.677Z,38.97
2017-12-02T06:12:34.086Z,27.43
2017-12-02T06:15:05.415Z,26.47
2017-12-02T06:17:35.743Z,33.80
2017-12-02T06:20:06.440Z,32.40
2017-12-02T06:22:37.048Z,30.33
2017-12-02T06:25:08.751Z,38.00
2017-12-02T06:27:39.143Z,29.10
2017-12-02T06:30:09.685Z,41.40
2017-12-02T06:32:40.024Z,28.27
2017-12-02T06:35:10.679Z,27.13
2017-12-02T06:37:43.304Z,29.13
2017-12-02T06:40:13.969Z,31.17
2017-12-02T06:42:44.366Z,35.17
2017-12-02T06:45:15.345Z,50.23
2017-12-02T06:47:45.803Z,34.17
2017-12-02T06:50:25.021Z,34.33
2017-12-02T06:52:57.168Z,31.37
2017-12-02T06:55:28.437Z,25.43
2017-12-02T06:57:59.712Z,32.73
2017-12-02T07:00:30.379Z,33.83
2017-12-02T07:03:00.943Z,36.53
2017-12-02T07:05:31.589Z,26.20
2017-12-02T07:08:01.944Z,34.33
2017-12-02T07:10:38.326Z,24.27
2017-12-02T07:13:09.576Z,24.37
2017-12-02T07:15:40.567Z,33.20
2017-12-02T07:18:14.046Z,23.40
2017-12-02T07:20:44.852Z,32.17
2017-12-02T07:23:15.258Z,26.53
2017-12-02T07:25:48.979Z,25.73
2017-12-02T07:28:19.495Z,26.30
2017-12-02T07:30:50.007Z,22.83
2017-12-02T07:33:21.539Z,25.03
2017-12-02T07:35:52.523Z,24.10
2017-12-02T07:38:22.942Z,25.93
2017-12-02T07:40:53.424Z,24.03
2017-12-02T07:43:23.775Z,27.93
2017-12-02T07:45:55.700Z,24.43
2017-12-02T07:48:26.167Z,25.67
2017-12-02T07:50:56.718Z,25.70
2017-12-02T07:53:33.059Z,20.70
2017-12-02T07:56:03.626Z,25.40
2017-12-02T07:58:35.227Z,18.63
2017-12-02T08:01:06.722Z,20.53
2017-12-02T08:03:39.982Z,27.03
2017-12-02T08:06:15.784Z,14.07
2017-12-02T08:08:47.476Z,17.13
2017-12-02T08:11:18.248Z,20.17
2017-12-02T08:13:48.587Z,14.43
2017-12-02T08:16:19.185Z,17.33
2017-12-02T08:18:49.634Z,12.80
2017-12-02T08:21:20.036Z,18.70
2017-12-02T08:23:50.696Z,18.60
2017-12-02T08:26:22.603Z,21.47
2017-12-02T08:28:54.669Z,20.20
2017-12-02T08:31:25.218Z,23.40
2017-12-02T08:33:56.961Z,24.37
2017-12-02T08:36:27.739Z,19.73
2017-12-02T08:39:02.471Z,33.50
2017-12-02T08:41:33.900Z,19.90
2017-12-02T08:44:04.759Z,29.73
2017-12-02T08:46:37.099Z,18.97
2017-12-02T08:49:07.943Z,22.10
2017-12-02T08:51:38.504Z,23.27
2017-12-02T08:54:16.112Z,23.43
2017-12-02T08:56:48.918Z,19.80
2017-12-02T08:59:19.673Z,18.13
2017-12-02T09:01:51.294Z,14.23
2017-12-02T09:04:21.988Z,18.00
2017-12-02T09:06:52.685Z,22.40
2017-12-02T09:09:25.416Z,20.87
2017-12-02T09:11:56.151Z,21.60
2017-12-02T09:14:27.765Z,24.73
2017-12-02T09:16:59.628Z,23.93
2017-12-02T09:19:30.228Z,24.30
2017-12-02T09:22:00.757Z,18.00
2017-12-02T09:24:32.559Z,21.80
2017-12-02T09:27:03.991Z,27.20
2017-12-02T09:29:34.515Z,20.50
2017-12-02T09:32:11.053Z,22.47
2017-12-02T09:34:41.847Z,23.20
2017-12-02T09:37:12.421Z,23.00
2017-12-02T09:39:43.117Z,24.03
2017-12-02T09:42:13.742Z,20.47
2017-12-02T09:44:45.264Z,13.23
2017-12-02T09:47:17.613Z,20.27
2017-12-02T09:49:48.471Z,21.13
2017-12-02T09:52:19.063Z,17.00
2017-12-02T09:54:50.538Z,21.77
2017-12-02T09:57:29.199Z,22.90
2017-12-02T10:00:00.600Z,25.27
2017-12-02T10:02:31.171Z,23.50
2017-12-02T10:05:01.656Z,18.17
2017-12-02T10:07:32.944Z,20.17
2017-12-02T10:10:03.948Z,18.90
2017-12-02T10:12:35.525Z,19.23
2017-12-02T10:15:06.028Z,20.73
2017-12-02T10:17:36.462Z,24.40
2017-12-02T10:20:08.112Z,19.20
2017-12-02T10:22:39.685Z,26.67
2017-12-02T10:25:10.263Z,27.13
2017-12-02T10:27:41.983Z,13.70
2017-12-02T10:30:12.471Z,20.13
2017-12-02T10:32:42.874Z,25.30
2017-12-02T10:35:13.951Z,16.20
2017-12-02T10:37:44.307Z,24.60
2017-12-02T10:40:14.918Z,24.50
2017-12-02T10:42:45.424Z,27.40
2017-12-02T10:45:16.203Z,24.03
2017-12-02T10:47:48.225Z,16.00
2017-12-02T10:50:18.617Z,21.30
2017-12-02T10:52:49.168Z,22.83
2017-12-02T10:55:19.847Z,19.37
2017-12-02T10:57:50.679Z,19.50
2017-12-02T11:00:21.254Z,18.00
2017-12-02T11:02:51.841Z,15.27
2017-12-02T11:05:23.047Z,14.90
2017-12-02T11:08:02.448Z,14.77
2017-12-02T11:10:32.871Z,20.33
2017-12-02T11:13:03.577Z,17.53
2017-12-02T11:15:34.020Z,11.87
2017-12-02T11:18:06.540Z,19.80
2017-12-02T11:20:38.384Z,16.07
2017-12-02T11:23:08.690Z,14.97
2017-12-02T11:25:39.490Z,16.27
2017-12-02T11:28:09.964Z,22.70
2017-12-02T11:30:41.776Z,14.57
2017-12-02T11:33:12.379Z,16.90
2017-12-02T11:35:44.184Z,14.13
2017-12-02T11:38:14.734Z,11.93
2017-12-02T11:40:45.312Z,16.23
2017-12-02T11:43:16.691Z,20.43
2017-12-02T11:45:49.739Z,10.83
2017-12-02T11:48:20.389Z,15.20
2017-12-02T11:50:50.933Z,11.20
2017-12-02T11:53:21.388Z,9.87
2017-12-02T11:55:52.740Z,15.10
2017-12-02T11:58:23.109Z,21.37
2017-12-02T12:01:03.390Z,16.50
2017-12-02T12:03:34.815Z,14.27
2017-12-02T12:06:05.379Z,18.70
2017-12-02T12:08:36.343Z,15.77
2017-12-02T12:11:06.817Z,24.57
2017-12-02T12:13:39.241Z,13.70
2017-12-02T12:16:10.398Z,12.33
2017-12-02T12:18:41.676Z,10.10
2017-12-02T12:21:12.276Z,14.90
2017-12-02T12:23:43.560Z,20.20
2017-12-02T12:26:15.366Z,14.07
2017-12-02T12:28:46.694Z,11.13
2017-12-02T12:31:17.184Z,11.90
2017-12-02T12:33:47.680Z,11.77
2017-12-02T12:36:26.547Z,12.23
2017-12-02T12:39:05.777Z,12.37
2017-12-02T12:41:36.259Z,16.07
2017-12-02T12:44:06.754Z,12.53
2017-12-02T12:46:37.959Z,19.00
2017-12-02T12:49:08.481Z,15.33
2017-12-02T12:51:38.825Z,15.33
2017-12-02T12:54:11.712Z,16.93
2017-12-02T12:56:42.170Z,14.73
2017-12-02T12:59:15.164Z,17.43
2017-12-02T13:01:54.882Z,10.73
2017-12-02T13:04:26.318Z,14.23
2017-12-02T13:06:56.891Z,16.00
2017-12-02T13:09:27.647Z,15.03
2017-12-02T13:11:57.929Z,22.43
2017-12-02T13:14:28.223Z,13.10
2017-12-02T13:16:58.615Z,13.00
2017-12-02T13:19:29.039Z,17.90
2017-12-02T13:22:00.368Z,16.10
2017-12-02T13:24:31.821Z,13.47
2017-12-02T13:27:02.640Z,19.03
2017-12-02T13:29:33.199Z,16.20
2017-12-02T13:32:05.245Z,15.37
2017-12-02T13:34:35.710Z,17.97
2017-12-02T13:37:07.067Z,15.50
2017-12-02T13:39:38.749Z,17.70
2017-12-02T13:42:09.019Z,20.83
2017-12-02T13:44:40.241Z,14.80
2017-12-02T13:47:10.658Z,16.17
2017-12-02T13:49:40.944Z,19.77
2017-12-02T13:52:12.039Z,19.57
2017-12-02T13:54:44.687Z,18.73
2017-12-02T13:57:15.097Z,23.30
2017-12-02T13:59:46.830Z,21.27
2017-12-02T14:02:18.646Z,16.07
2017-12-02T14:04:56.654Z,26.73
2017-12-02T14:07:35.570Z,23.03
2017-12-02T14:10:16.247Z,25.10
2017-12-02T14:12:47.431Z,23.13
2017-12-02T14:15:19.363Z,20.60
2017-12-02T14:17:49.650Z,18.97
2017-12-02T14:20:20.608Z,17.50
2017-12-02T14:22:51.675Z,15.77
2017-12-02T14:25:23.295Z,24.57
2017-12-02T14:27:54.430Z,18.93
2017-12-02T14:30:25.470Z,23.10
2017-12-02T14:32:56.056Z,14.73
2017-12-02T14:35:26.363Z,20.37
2017-12-02T14:37:56.795Z,13.77
2017-12-02T14:40:28.870Z,17.70
2017-12-02T14:42:59.115Z,14.50
2017-12-02T14:45:29.561Z,13.83
2017-12-02T14:48:00.316Z,18.07
2017-12-02T14:50:30.503Z,25.93
2017-12-02T14:53:00.853Z,20.13
2017-12-02T14:55:31.259Z,20.43
2017-12-02T14:58:04.029Z,18.70
2017-12-02T15:00:34.342Z,20.30
2017-12-02T15:03:05.065Z,18.00
2017-12-02T15:05:43.427Z,20.63
2017-12-02T15:08:14.804Z,19.40
2017-12-02T15:10:45.172Z,23.53
2017-12-02T15:13:15.554Z,17.80
2017-12-02T15:15:48.495Z,15.40
2017-12-02T15:18:19.195Z,17.43
2017-12-02T15:20:49.676Z,18.17
2017-12-02T15:23:20.077Z,24.20
2017-12-02T15:25:50.743Z,20.57
2017-12-02T15:28:21.169Z,15.03
2017-12-02T15:31:01.507Z,18.23
2017-12-02T15:33:32.028Z,16.67
2017-12-02T15:36:02.460Z,19.60
2017-12-02T15:38:32.881Z,14.57
2017-12-02T15:41:03.253Z,21.10
2017-12-02T15:43:33.734Z,19.37
2017-12-02T15:46:04.717Z,14.77
2017-12-02T15:48:36.201Z,22.00
2017-12-02T15:51:06.618Z,19.90
2017-12-02T15:53:37.179Z,24.27
2017-12-02T15:56:07.985Z,16.47
2017-12-02T15:58:38.503Z,22.30
2017-12-02T16:01:13.083Z,18.33
2017-12-02T16:03:44.382Z,24.27
2017-12-02T16:06:15.096Z,28.33
2017-12-02T16:08:46.329Z,22.03
2017-12-02T16:11:17.192Z,19.47
2017-12-02T16:13:47.637Z,20.20
2017-12-02T16:16:18.116Z,17.83
2017-12-02T16:18:49.280Z,18.90
2017-12-02T16:21:20.523Z,15.23
2017-12-02T16:23:51.595Z,18.77
2017-12-02T16:26:31.401Z,21.53
2017-12-02T16:29:01.866Z,21.50
2017-12-02T16:31:32.264Z,15.97
2017-12-02T16:34:04.936Z,16.60
2017-12-02T16:36:35.503Z,16.63
2017-12-02T16:39:06.162Z,17.57
2017-12-02T16:41:36.460Z,18.70
2017-12-02T16:44:06.791Z,22.30
2017-12-02T16:46:37.011Z,19.33
2017-12-02T16:49:07.703Z,24.83
2017-12-02T16:51:38.100Z,20.43
2017-12-02T16:54:08.888Z,23.67
2017-12-02T16:56:40.013Z,20.37
2017-12-02T16:59:11.063Z,20.13
2017-12-02T17:04:17.336Z,26.60
2017-12-02T17:09:23.906Z,24.00
2017-12-02T17:11:56.661Z,21.73
2017-12-02T17:14:26.993Z,18.13
2017-12-02T17:16:58.464Z,29.10
2017-12-02T17:19:28.813Z,29.60
2017-12-02T17:21:59.102Z,28.33
2017-12-02T17:24:29.779Z,24.03
2017-12-02T17:27:00.052Z,22.23
2017-12-02T17:29:30.479Z,29.63
2017-12-02T17:32:01.283Z,27.70
2017-12-02T17:34:32.453Z,21.57
2017-12-02T17:37:03.008Z,30.90
2017-12-02T17:39:33.409Z,32.37
2017-12-02T17:42:04.108Z,24.07
2017-12-02T17:44:35.731Z,24.37
2017-12-02T17:47:05.893Z,23.77
2017-12-02T17:49:36.286Z,25.13
2017-12-02T17:52:06.766Z,20.23
2017-12-02T17:54:37.088Z,18.93
2017-12-02T17:57:08.543Z,26.57
2017-12-02T17:59:39.068Z,32.67
2017-12-02T18:02:09.600Z,23.90
2017-12-02T18:04:40.444Z,29.50
2017-12-02T18:07:10.865Z,26.50
2017-12-02T18:12:20.840Z,24.53
2017-12-02T18:14:52.032Z,19.27
2017-12-02T18:17:23.259Z,28.97
2017-12-02T18:19:53.735Z,22.53
2017-12-02T18:22:24.300Z,22.30
2017-12-02T18:24:54.605Z,21.80
2017-12-02T18:27:25.127Z,28.40
2017-12-02T18:29:55.588Z,24.60
2017-12-02T18:32:26.051Z,28.30
2017-12-02T18:34:57.325Z,29.07
2017-12-02T18:37:29.060Z,27.37
2017-12-02T18:39:59.877Z,32.67
2017-12-02T18:42:30.613Z,32.90
2017-12-02T18:45:01.121Z,23.40
2017-12-02T18:47:31.499Z,30.07
2017-12-02T18:50:01.805Z,30.40
2017-12-02T18:52:33.174Z,20.90
2017-12-02T18:55:03.665Z,25.37
2017-12-02T18:57:33.999Z,29.70
2017-12-02T19:00:04.640Z,27.80
2017-12-02T19:02:36.084Z,36.80
2017-12-02T19:05:06.469Z,36.10
2017-12-02T19:07:43.954Z,37.07
2017-12-02T19:10:15.396Z,30.80
2017-12-02T19:12:51.113Z,34.70
2017-12-02T19:15:23.080Z,39.33
2017-12-02T19:17:53.744Z,37.30
2017-12-02T19:20:24.962Z,48.00
2017-12-02T19:22:55.991Z,41.77
2017-12-02T19:25:27.192Z,37.50
2017-12-02T19:27:57.983Z,39.97
2017-12-02T19:30:28.185Z,33.70
2017-12-02T19:32:58.475Z,35.93
2017-12-02T19:35:30.460Z,49.77
2017-12-02T19:38:01.339Z,46.30
2017-12-02T19:40:31.727Z,44.33
2017-12-02T19:43:03.263Z,40.10
2017-12-02T19:45:34.784Z,37.60
2017-12-02T19:48:05.300Z,40.97
2017-12-02T19:50:35.747Z,33.37
2017-12-02T19:53:06.116Z,41.97
2017-12-02T19:55:36.520Z,39.90
2017-12-02T19:58:08.298Z,40.93
2017-12-02T20:00:39.657Z,37.40
2017-12-02T20:03:10.072Z,46.40
2017-12-02T20:05:40.825Z,38.87
2017-12-02T20:08:11.669Z,34.57
2017-12-02T20:10:42.391Z,35.67
2017-12-02T20:13:13.013Z,44.57
2017-12-02T20:15:51.892Z,38.17
2017-12-02T20:18:22.477Z,43.20
2017-12-02T20:20:52.906Z,40.40
2017-12-02T20:23:23.442Z,41.27
2017-12-02T20:25:54.034Z,36.40
2017-12-02T20:28:26.227Z,43.80
2017-12-02T20:30:56.660Z,43.53
2017-12-02T20:33:27.385Z,30.23
2017-12-02T20:35:58.061Z,54.07
2017-12-02T20:38:34.910Z,42.30
2017-12-02T20:41:15.014Z,37.60
2017-12-02T20:43:46.336Z,32.47
2017-12-02T20:46:25.337Z,40.60
2017-12-02T20:48:57.280Z,35.20
2017-12-02T20:51:28.152Z,46.60
2017-12-02T20:53:59.425Z,45.77
2017-12-02T20:56:30.017Z,69.03
2017-12-02T20:59:01.032Z,47.43
2017-12-02T21:01:31.519Z,61.17
2017-12-02T21:04:01.725Z,70.23
2017-12-02T21:06:32.096Z,71.53
2017-12-02T21:09:02.442Z,62.63
2017-12-02T21:11:33.024Z,49.73
2017-12-02T21:14:04.851Z,59.30
2017-12-02T21:16:42.213Z,54.30
2017-12-02T21:19:14.445Z,67.93
2017-12-02T21:21:45.995Z,48.20
2017-12-02T21:24:17.031Z,59.77
2017-12-02T21:26:48.258Z,49.90
2017-12-02T21:29:18.949Z,43.33
2017-12-02T21:31:49.180Z,64.00
2017-12-02T21:34:19.669Z,54.77
2017-12-02T21:36:50.341Z,53.43
2017-12-02T21:39:20.764Z,44.57
2017-12-02T21:41:51.251Z,53.43
2017-12-02T21:44:21.788Z,51.27
2017-12-02T21:46:56.634Z,56.87
2017-12-02T21:49:29.802Z,49.27
2017-12-02T21:52:00.081Z,53.10
2017-12-02T21:54:30.855Z,48.03
2017-12-02T21:57:01.573Z,59.23
2017-12-02T21:59:32.915Z,45.37
2017-12-02T22:02:04.155Z,60.30
2017-12-02T22:04:35.345Z,42.27
2017-12-02T22:07:06.152Z,51.03
2017-12-02T22:09:37.207Z,48.63
2017-12-02T22:12:07.936Z,53.07
2017-12-02T22:14:39.306Z,50.23
2017-12-02T22:17:10.129Z,44.07
2017-12-02T22:19:40.592Z,52.53
2017-12-02T22:22:11.681Z,52.13
2017-12-02T22:24:42.227Z,58.10
2017-12-02T22:27:13.100Z,41.53
2017-12-02T22:29:43.987Z,38.20
2017-12-02T22:32:14.865Z,49.50
2017-12-02T22:34:45.628Z,55.80
2017-12-02T22:37:16.006Z,60.17
2017-12-02T22:39:46.657Z,37.97
2017-12-02T22:42:18.343Z,42.00
2017-12-02T22:44:49.068Z,44.47
2017-12-02T22:47:19.847Z,39.33
2017-12-02T22:49:50.553Z,39.53
2017-12-02T22:52:21.169Z,53.03
2017-12-02T22:54:51.853Z,35.33
2017-12-02T22:57:22.321Z,45.87
2017-12-02T22:59:53.059Z,39.47
2017-12-02T23:02:23.681Z,40.80
2017-12-02T23:04:54.433Z,49.77
2017-12-02T23:07:26.386Z,40.73
2017-12-02T23:09:57.194Z,36.43
2017-12-02T23:12:27.820Z,40.90
2017-12-02T23:14:58.922Z,45.33
2017-12-02T23:17:29.417Z,39.67
2017-12-02T23:20:08.896Z,36.10
2017-12-02T23:22:40.479Z,41.07
2017-12-02T23:25:10.949Z,34.97
2017-12-02T23:27:43.027Z,43.03
2017-12-02T23:30:13.181Z,42.70
2017-12-02T23:32:43.611Z,39.73
2017-12-02T23:35:15.016Z,37.60
2017-12-02T23:37:45.734Z,40.60
2017-12-02T23:40:16.129Z,29.70
2017-12-02T23:42:46.748Z,38.87
2017-12-02T23:45:17.380Z,34.50
2017-12-02T23:47:47.772Z,42.63
2017-12-02T23:50:19.064Z,34.07
2017-12-02T23:52:50.037Z,45.77
2017-12-02T23:55:20.771Z,32.90
2017-12-02T23:57:51.513Z,31.67
